Classement



SCRATCH - SENIOR - MIXTE - MASTER - JEUNE - FEMININE - VAE


Cl. Dossard Equipe Catégorie Distance Temps Dernier passage
1 165 FREMEAUX ALEXIS/ROLAND JÉRÔME VAE 91.2km 04:12:04 27/09/20 à 16:42:34
2 2 TRUNET CLÉMENT/LETURCQ GEOFFREY SENIOR 83.6km 04:05:48 27/09/20 à 16:36:18
3 22 DASSONVILLE BENOIT/DESETTE GUILLAUME SENIOR 83.6km 04:09:28 27/09/20 à 16:39:58
4 37 DEJARDIN CORENTIN/HARLEZ MAXIME SENIOR 83.6km 04:11:00 27/09/20 à 16:41:30
5 95 FERON RUDY/LEJEUNE REMI SENIOR 83.6km 04:13:06 27/09/20 à 16:43:36
6 152 BELLARD ROMAIN/BELLARD THOMAS SENIOR 83.6km 04:20:30 27/09/20 à 16:51:00
7 147 COLASSE BENJAMIN/PELTIER LORIS SENIOR 83.6km 04:21:16 27/09/20 à 16:51:46
8 17 HEDDE CHARLE/MARCQ YOURI SENIOR 83.6km 04:25:49 27/09/20 à 16:56:19
9 6 NOWICKI FABRICE/DURANT DIDIER MASTER 83.6km 04:27:35 27/09/20 à 16:58:05
10 11 GRAS MARC/CARON ANTOINE SENIOR 76km 04:05:06 27/09/20 à 16:35:36
11 10 HENNEQUART MARTIN/DE PAEPE AURÉLIEN SENIOR 76km 04:07:24 27/09/20 à 16:37:54
12 91 MENTRE ETIENNE/TRISTRAM JESSY SENIOR 76km 04:10:00 27/09/20 à 16:40:30
13 80 GUILLE FLAVIE/RICART MAXIME MIXTE 76km 04:11:14 27/09/20 à 16:41:44
14 84 HERISSET ELIOT/DEVAUX LUCIEN JEUNE 76km 04:15:53 27/09/20 à 16:46:23
15 40 LETELLIER REMI/VIFQUIN GAETAN SENIOR 76km 04:16:15 27/09/20 à 16:46:45
16 9 CHALAS JEAN PIERRE/CAZE ALBAN SENIOR 76km 04:16:15 27/09/20 à 16:46:45
17 163 COLLIER FRANCK/COLLIER THÉOTIME SENIOR 76km 04:17:33 27/09/20 à 16:48:03
18 166 FIQUET JEAN MICHEL/PIERRU OLIVIER VAE 76km 04:18:40 27/09/20 à 16:49:10
19 88 BREVIERE ALEXANDRE/CORMAN SÉBASTIEN SENIOR 76km 04:20:05 27/09/20 à 16:50:35
20 30 HERBACH LAURENT/KROL MICHAEL MASTER 76km 04:20:21 27/09/20 à 16:50:51
21 35 DANHIEZ REMI/SAMIER GERMAIN JEUNE 76km 04:20:47 27/09/20 à 16:51:17
22 23 BEAUCARNE VICTOR/VAN HERPE FLORENT SENIOR 76km 04:21:14 27/09/20 à 16:51:44
23 43 BLANPAIN KEVIN/BUTTIAUX SEVERIN SENIOR 76km 04:21:46 27/09/20 à 16:52:16
24 125 BENDJEBBOUR SAMIR/ABRASSART SASCHA SENIOR 76km 04:22:40 27/09/20 à 16:53:10
25 54 COURNILLOUX PAUL/LONCKE SÉBASTIEN SENIOR 76km 04:23:38 27/09/20 à 16:54:08
26 26 CANONNE STEVEN/LANDAS MARTY SENIOR 76km 04:24:11 27/09/20 à 16:54:41
27 109 LEVIELLE QUENTIN/THOREZ NICOLAS SENIOR 76km 04:26:33 27/09/20 à 16:57:03
28 39 RIVART THIERRY/RIVART ADRIEN SENIOR 76km 04:27:10 27/09/20 à 16:57:40
29 161 DE SMET ORION/BOUTOILLE ARTHUR JEUNE 76km 04:29:50 27/09/20 à 17:00:20
30 104 MEKIL AURELIEN/LEFEBVRE MARC-ANTOINE SENIOR 76km 04:30:08 27/09/20 à 17:00:38
31 31 DELYS JÜRGEN/ATTAGNANT JUSTINE MIXTE 76km 04:30:28 27/09/20 à 17:00:58
32 1 DAME JORDY/DAME DYLAN SENIOR 68.4km 03:24:19 27/09/20 à 15:54:49
33 139 GUYOT FABIEN/QUIQUET CHRISTOPHE SENIOR 68.4km 04:03:55 27/09/20 à 16:34:25
34 36 LIONNE LIONEL/GAMACHE CHRISTOPHE MASTER 68.4km 04:05:32 27/09/20 à 16:36:02
35 4 BURZYNSKI ORIANE/LELEU CHRISTIAN MIXTE 68.4km 04:05:54 27/09/20 à 16:36:24
36 142 LEO VANDEKERCKHOVE/BONNET JOHNNY SENIOR 68.4km 04:07:20 27/09/20 à 16:37:50
37 20 NIEL FLORIAN/DUPAS XAVIER SENIOR 68.4km 04:07:53 27/09/20 à 16:38:23
38 159 DENIZART MATHIAS/BONNAY LUCAS JEUNE 68.4km 04:10:07 27/09/20 à 16:40:37
39 63 BOUZERE ADRIEN/BOUZERE FLORIAN JEUNE 68.4km 04:10:38 27/09/20 à 16:41:08
40 158 DELOBEL OLIVIER/CHOMBART NICOLAS SENIOR 68.4km 04:10:38 27/09/20 à 16:41:08
41 156 ANTOINE DUFFROY/PLACE NICOLAS SENIOR 68.4km 04:11:44 27/09/20 à 16:42:14
42 55 BRODEL ANTONIN/SOBCZAK THEO JEUNE 68.4km 04:11:51 27/09/20 à 16:42:21
43 110 CRUPPE KYLIAN/DEVIENNE ARNAUD SENIOR 68.4km 04:12:13 27/09/20 à 16:42:43
44 134 GUYOT MICKAEL/DELETTRÉ ANTHONY SENIOR 68.4km 04:13:00 27/09/20 à 16:43:30
45 160 BOURGAIN LUDOVIC/MARIN NICOLAS SENIOR 68.4km 04:14:27 27/09/20 à 16:44:57
46 123 ANSQUIN CORENTIN/HULOT MARC-ANTOINE SENIOR 68.4km 04:15:59 27/09/20 à 16:46:29
47 90 BERNARD MICHAEL/VANTHUYNE STEPHAN SENIOR 68.4km 04:16:44 27/09/20 à 16:47:14
48 13 ROUSSELLE NICOLAS/LEPLANQUOIS GAUTHIER SENIOR 68.4km 04:18:58 27/09/20 à 16:49:28
49 141 BERQUE PIERRE-YVES/LAFUENTE BAPTISTE SENIOR 68.4km 04:19:19 27/09/20 à 16:49:49
50 130 CAPON SEBASTIEN/DEPAEPE GREGORY SENIOR 68.4km 04:19:43 27/09/20 à 16:50:13
51 149 VIVOT LUDOVIC/GAMANT SÉBASTIEN SENIOR 68.4km 04:21:36 27/09/20 à 16:52:06
52 46 VERDIERE BAPTISTE/LEITAO LOURO JULES JEUNE 68.4km 04:22:06 27/09/20 à 16:52:36
53 94 DELALEAU VALENTIN/KALKA YOHANN JEUNE 68.4km 04:22:21 27/09/20 à 16:52:51
54 45 BUISSE OLIVIER/TRINQUART YANNICK MASTER 68.4km 04:23:45 27/09/20 à 16:54:15
55 14 BAK LUCILLE/PONCET PASCAL MIXTE 68.4km 04:25:14 27/09/20 à 16:55:44
56 97 POUBEL DIENG YANNICK/DAUCHEZ VICTOR JEUNE 68.4km 04:30:17 27/09/20 à 17:00:47
57 56 BOUREL JONATHAN/DEJEHET FRANÇOIS XAVIER SENIOR 68.4km 04:32:59 27/09/20 à 17:03:29
58 98 CARLIER HUGO/SARENS SYLVAIN SENIOR 68.4km 04:33:51 27/09/20 à 17:04:21
59 28 BOURY ALEXANDRE/DISSAUX LUDOVIC MASTER 60.8km 04:02:02 27/09/20 à 16:32:32
60 29 DISSAUX BENOIT/CORDONNIER MATHEO SENIOR 60.8km 04:02:11 27/09/20 à 16:32:41
61 15 PREVOT GREG/MOLMY ARNAUD SENIOR 60.8km 04:03:29 27/09/20 à 16:33:59
62 146 BOONE GEOFFREY/BOONE BIS GEOFFREY BIS SENIOR 60.8km 04:04:11 27/09/20 à 16:34:41
63 87 POCHOLLE BENOIT/TOURET HERVE SENIOR 60.8km 04:05:01 27/09/20 à 16:35:31
64 62 VILLAIN ENZO/DE PARMENTIER MAXENCE JEUNE 60.8km 04:05:41 27/09/20 à 16:36:11
65 24 VAN DE MEULEBROEKE FLORE/LANCELLE FLORENTIN MIXTE 60.8km 04:05:52 27/09/20 à 16:36:22
66 19 CASTELAIN CLAIRE/FARDOUX DANY MIXTE 60.8km 04:07:13 27/09/20 à 16:37:43
67 32 SANGNIER MARC/GAUTHRIN FREDERIC MASTER 60.8km 04:07:53 27/09/20 à 16:38:23
68 153 LEBON JEAN-PHILIPPE/DUCAMP JÉRÉMY SENIOR 60.8km 04:08:34 27/09/20 à 16:39:04
69 82 LAMAURY SÉBASTIEN/PRUVOST CLÉMENT SENIOR 60.8km 04:08:50 27/09/20 à 16:39:20
70 18 BOCQUILLON JÉRÔME/FONTAINE BENJAMIN SENIOR 60.8km 04:09:31 27/09/20 à 16:40:01
71 81 ANDRIES ARTHUR/SARAIVA ANTOINE JEUNE 60.8km 04:10:19 27/09/20 à 16:40:49
72 154 PLUCHARD MATHIS/BOUTTEAUX MATTEO JEUNE 60.8km 04:12:06 27/09/20 à 16:42:36
73 65 CORDONNIER CAMILLE/LECRIVAIN SÉBASTIEN SENIOR 60.8km 04:13:14 27/09/20 à 16:43:44
74 126 ANCEAUX NICOLAS/KULIFAJ ANTOINE SENIOR 60.8km 04:13:19 27/09/20 à 16:43:49
75 145 KOSMALA MAXIME/MIOT JEROME SENIOR 60.8km 04:13:59 27/09/20 à 16:44:29
76 112 BOURDREL SYLVAIN/MORGANT CHRISTIAN MASTER 60.8km 04:15:02 27/09/20 à 16:45:32
77 151 GARDEBIEN LIONEL/BIETTE BENOIT SENIOR 60.8km 04:15:04 27/09/20 à 16:45:34
78 77 DUFOUR ROMUALD/DELHAYE MICKAEL MASTER 60.8km 04:17:56 27/09/20 à 16:48:26
79 131 MIENS JEROME/DAMBRINE MATHIEU MASTER 60.8km 04:18:02 27/09/20 à 16:48:32
80 111 GUILLE FOURNIER / CHARLES YOHANN SENIOR 60.8km 04:22:36 27/09/20 à 16:53:06
81 136 DELCROIX MANUEL/DENEUX ARMAND MASTER 60.8km 04:22:46 27/09/20 à 16:53:16
82 25 JACQUES KEVIN/LEDOUX RÉMY SENIOR 60.8km 04:23:54 27/09/20 à 16:54:24
83 58 DEWAVRIN FLORENT/SAMIER FREDERIC SENIOR 60.8km 04:27:44 27/09/20 à 16:58:14
84 124 MOUCHART AXEL/MOUCHART MATHEO SENIOR 60.8km 04:31:49 27/09/20 à 17:02:19
85 116 VANDERMEERSCH SAMME/STAUTE BODHI SENIOR 60.8km 04:34:48 27/09/20 à 17:05:18
86 137 KRASZKIEWICZ LAURENT/TAKSZ TONY SENIOR 60.8km 04:35:20 27/09/20 à 17:05:50
87 144 CHEVALIER PHILIPPE/DARRAS ROMUALD MASTER 60.8km 04:35:38 27/09/20 à 17:06:08
88 47 HERBOMEL CEDRIC/DELEBECQ ARNAUD SENIOR 60.8km 04:36:33 27/09/20 à 17:07:03
89 83 KALMUK ELIOT/VERHULST AXEL JEUNE 60.8km 04:37:15 27/09/20 à 17:07:45
90 93 VAILLIERE SEBASTIEN/BEHAGUE YOANN SENIOR 60.8km 04:40:18 27/09/20 à 17:10:48
91 73 BOULIEZ FRANÇOIS/JONES ALLAN SENIOR 60.8km 04:41:00 27/09/20 à 17:11:30
92 164 DUTHOIT JEAN BAPTISTE/DUTHOIT JEREMIE MASTER 60.8km 04:42:30 27/09/20 à 17:13:00
93 21 VAN-CLEEMPUT MARTIAL/KIRKET QUENTIN SENIOR 53.2km 03:26:38 27/09/20 à 15:57:08
94 85 BLAZART FLORIAN/DUMORTIER YOHAN SENIOR 53.2km 03:48:59 27/09/20 à 16:19:29
95 103 FORGET MAXENCE/COZE QUENTIN JEUNE 53.2km 03:50:33 27/09/20 à 16:21:03
96 76 CARON GEORGES/GOMEZ FABIAN SENIOR 53.2km 03:52:22 27/09/20 à 16:22:52
97 68 DUPONT YANNICK/DELPORTE XAVIER MASTER 53.2km 04:08:09 27/09/20 à 16:38:39
98 138 GAIGNEUR WALTER/VAN MEENEN LOUIS JEUNE 53.2km 04:08:43 27/09/20 à 16:39:13
99 128 DUTHOIT ELISE/DUTHOIT CORENTIN MIXTE 53.2km 04:10:05 27/09/20 à 16:40:35
100 157 MAILLARD MORGAN/EVRARD ETIENNE SENIOR 53.2km 04:10:57 27/09/20 à 16:41:27
101 143 DESSAINT CYRIL/DESSAINT BENOIT JEUNE 53.2km 04:13:27 27/09/20 à 16:43:57
102 64 DEWEIRELD MATHIEU/LAVOISY KEVIN SENIOR 53.2km 04:13:58 27/09/20 à 16:44:28
103 135 LAMIAUX FABRICE/KLEGLER MATHIEU MASTER 53.2km 04:15:16 27/09/20 à 16:45:46
104 132 BERNARD SÉBASTIEN/GUISE FLORENT SENIOR 53.2km 04:15:35 27/09/20 à 16:46:05
105 127 LAMARCHE CLARA/GRAUX ZELIE FEMININE 53.2km 04:16:28 27/09/20 à 16:46:58
106 49 DEMANDRILLE TOMAS/LHERMITTE EVAN JEUNE 53.2km 04:17:10 27/09/20 à 16:47:40
107 12 KAMINSKI MICHEL/BEER POTES ADRIEN SENIOR 53.2km 04:18:29 27/09/20 à 16:48:59
108 89 FOLENS REMY/TENEUR THIBAUT SENIOR 53.2km 04:19:30 27/09/20 à 16:50:00
109 69 PAQUE JOHAN/MAQUINGHEN THIBAUD SENIOR 53.2km 04:20:18 27/09/20 à 16:50:48
110 7 BERLEMONT MAXENCE/YVART MINDY MIXTE 53.2km 04:22:16 27/09/20 à 16:52:46
111 106 MEKIL THÉO/VERPOEST THÉODORE JEUNE 53.2km 04:24:33 27/09/20 à 16:55:03
112 72 FARDEL DAVID/DOUAY RODRIGUE SENIOR 53.2km 04:32:10 27/09/20 à 17:02:40
113 74 FABRE LUCAS/LEGRIS SYLVAIN SENIOR 53.2km 04:32:47 27/09/20 à 17:03:17
114 150 PARENT THIÉFAINE/LEFEBVRE JESSY SENIOR 45.6km 03:48:13 27/09/20 à 16:18:43
115 66 ZIMOCH BENJAMIN/CHAVET MATTHIEU SENIOR 45.6km 03:51:37 27/09/20 à 16:22:07
116 51 NEUTRE BERTRAND/BACHELET MICKAEL SENIOR 45.6km 03:58:04 27/09/20 à 16:28:34
117 78 DESBUISSONS XAVIER/DELPORTE CHRISTOPHE MASTER 45.6km 04:04:24 27/09/20 à 16:34:54
118 115 DE NEEF FLORENT/MEKIL CLÉMENT SENIOR 45.6km 04:10:17 27/09/20 à 16:40:47
119 107 PIETTE PASCAL BIS/PIETTE PASCAL SENIOR 45.6km 04:13:01 27/09/20 à 16:43:31
120 67 DELPORTE CATHY/DUPONT HÉLÈNE FEMININE 45.6km 04:27:48 27/09/20 à 16:58:18
121 53 DUPUIS ARNAUD/GOBERT DENIS MASTER 38km 03:17:16 27/09/20 à 15:47:46
122 34 RINGAUD ROMAIN/VASSEUR LUDO SENIOR 38km 03:32:57 27/09/20 à 16:03:27
123 48 DEMANDRILLE CEDRIC/DEVIENNE RAPHAEL SENIOR 38km 03:43:48 27/09/20 à 16:14:18
124 38 PELLEGRINI CHARLES/BUHOT DAVID SENIOR 38km 03:47:22 27/09/20 à 16:17:52
125 114 MERCIER JEAN MICHEL/POUBEL OLIVIER MASTER 38km 03:54:59 27/09/20 à 16:25:29
126 118 SOUILLART WILFRIED/CORDIER DAVID SENIOR 38km 04:07:38 27/09/20 à 16:38:08
127 162 GRYNIEWICZ SÉBASTIEN/HOARAU JULIEN SENIOR 38km 04:09:15 27/09/20 à 16:39:45
128 113 FRUMERY JULIAN/FRUMERY SYLVAIN JEUNE 38km 04:11:20 27/09/20 à 16:41:50
129 148 FAYEULLE STEEVIE/FRESELLE GONTRAN JEUNE 38km 04:23:08 27/09/20 à 16:53:38
130 71 WARLOUZET DAVID/VALENTI LAURENT MASTER 38km 04:39:49 27/09/20 à 17:10:19
131 75 BATEL ARNAUD/LHERMITTE FRÉDÉRIC SENIOR 30.4km 04:07:45 27/09/20 à 16:38:15
132 60 MASSET MORGAN/MASSET MORGAN SENIOR 22.8km 01:54:04 27/09/20 à 14:24:34
133 119 LIEGEOIS EVAN/ZITELLI GREGORY JEUNE 15.2km 01:23:46 27/09/20 à 13:54:16


RETOUR RECHERCHE DOSSARD